sensor_id;sensor_type;location;lat;lon;timestamp;pressure;altitude;pressure_sealevel;temperature;humidity
61113;BME280;47184;57.998;56.184;2023-02-04T00:01:12;100769.25;;;-4.71;56.50
61113;BME280;47184;57.998;56.184;2023-02-04T00:03:38;100765.97;;;-4.76;56.31
61113;BME280;47184;57.998;56.184;2023-02-04T00:06:04;100768.25;;;-4.65;56.54
61113;BME280;47184;57.998;56.184;2023-02-04T00:08:30;100771.59;;;-4.63;56.50
61113;BME280;47184;57.998;56.184;2023-02-04T00:10:56;100769.25;;;-4.71;56.61
61113;BME280;47184;57.998;56.184;2023-02-04T00:13:22;100770.91;;;-4.68;56.44
61113;BME280;47184;57.998;56.184;2023-02-04T00:15:48;100778.16;;;-4.83;56.68
61113;BME280;47184;57.998;56.184;2023-02-04T00:18:15;100774.00;;;-4.87;56.85
61113;BME280;47184;57.998;56.184;2023-02-04T00:20:41;100742.06;;;-5.11;56.49
61113;BME280;47184;57.998;56.184;2023-02-04T00:23:07;100765.75;;;-4.98;56.63
61113;BME280;47184;57.998;56.184;2023-02-04T00:25:35;100760.63;;;-5.00;56.60
61113;BME280;47184;57.998;56.184;2023-02-04T00:28:01;100752.28;;;-5.08;56.57
61113;BME280;47184;57.998;56.184;2023-02-04T00:30:30;100754.91;;;-5.09;56.66
61113;BME280;47184;57.998;56.184;2023-02-04T00:32:56;100734.91;;;-5.31;56.25
61113;BME280;47184;57.998;56.184;2023-02-04T00:35:23;100763.88;;;-5.22;56.67
61113;BME280;47184;57.998;56.184;2023-02-04T00:37:51;100751.78;;;-5.20;56.80
61113;BME280;47184;57.998;56.184;2023-02-04T00:40:18;100768.50;;;-5.04;56.71
61113;BME280;47184;57.998;56.184;2023-02-04T00:42:44;100778.88;;;-5.07;56.52
61113;BME280;47184;57.998;56.184;2023-02-04T00:45:11;100773.06;;;-5.14;56.66
61113;BME280;47184;57.998;56.184;2023-02-04T00:47:38;100769.78;;;-5.20;57.14
61113;BME280;47184;57.998;56.184;2023-02-04T00:50:04;100785.25;;;-5.20;56.51
61113;BME280;47184;57.998;56.184;2023-02-04T00:52:30;100756.56;;;-5.39;57.02
61113;BME280;47184;57.998;56.184;2023-02-04T00:54:56;100773.53;;;-5.31;56.94
61113;BME280;47184;57.998;56.184;2023-02-04T00:57:23;100796.47;;;-5.23;57.43
61113;BME280;47184;57.998;56.184;2023-02-04T00:59:49;100792.97;;;-5.20;57.16
61113;BME280;47184;57.998;56.184;2023-02-04T01:02:16;100770.91;;;-4.98;56.13
61113;BME280;47184;57.998;56.184;2023-02-04T01:04:42;100786.56;;;-5.06;56.59
61113;BME280;47184;57.998;56.184;2023-02-04T01:07:08;100774.19;;;-5.24;56.91
61113;BME280;47184;57.998;56.184;2023-02-04T01:09:34;100787.13;;;-5.27;57.14
61113;BME280;47184;57.998;56.184;2023-02-04T01:12:00;100779.66;;;-5.36;57.63
61113;BME280;47184;57.998;56.184;2023-02-04T01:14:26;100784.69;;;-5.32;57.41
61113;BME280;47184;57.998;56.184;2023-02-04T01:16:52;100785.50;;;-5.30;57.79
61113;BME280;47184;57.998;56.184;2023-02-04T01:19:18;100779.66;;;-5.36;57.45
61113;BME280;47184;57.998;56.184;2023-02-04T01:21:45;100759.41;;;-5.49;57.53
61113;BME280;47184;57.998;56.184;2023-02-04T01:24:12;100784.59;;;-5.29;57.58
61113;BME280;47184;57.998;56.184;2023-02-04T01:27:01;100762.66;;;-5.42;57.72
61113;BME280;47184;57.998;56.184;2023-02-04T01:29:27;100781.28;;;-5.32;57.49
61113;BME280;47184;57.998;56.184;2023-02-04T01:31:53;100787.94;;;-5.25;57.47
61113;BME280;47184;57.998;56.184;2023-02-04T01:34:19;100793.94;;;-5.25;57.57
61113;BME280;47184;57.998;56.184;2023-02-04T01:36:45;100778.41;;;-5.21;57.72
61113;BME280;47184;57.998;56.184;2023-02-04T01:39:11;100780.84;;;-5.17;57.29
61113;BME280;47184;57.998;56.184;2023-02-04T01:41:38;100787.03;;;-5.22;57.47
61113;BME280;47184;57.998;56.184;2023-02-04T01:44:05;100789.94;;;-5.35;57.60
61113;BME280;47184;57.998;56.184;2023-02-04T01:46:31;100798.56;;;-5.37;57.64
61113;BME280;47184;57.998;56.184;2023-02-04T01:49:04;100773.91;;;-5.79;58.02
61113;BME280;47184;57.998;56.184;2023-02-04T01:51:31;100817.50;;;-5.74;58.74
61113;BME280;47184;57.998;56.184;2023-02-04T01:54:00;100817.13;;;-5.59;58.31
61113;BME280;47184;57.998;56.184;2023-02-04T01:56:29;100802.09;;;-5.74;58.17
61113;BME280;47184;57.998;56.184;2023-02-04T01:58:57;100810.44;;;-5.66;58.13
61113;BME280;47184;57.998;56.184;2023-02-04T02:01:36;100824.28;;;-5.70;58.15
61113;BME280;47184;57.998;56.184;2023-02-04T02:04:04;100824.28;;;-5.70;58.37
61113;BME280;47184;57.998;56.184;2023-02-04T02:06:33;100802.50;;;-5.91;58.12
61113;BME280;47184;57.998;56.184;2023-02-04T02:09:00;100830.50;;;-5.79;58.41
61113;BME280;47184;57.998;56.184;2023-02-04T02:11:27;100838.31;;;-5.83;58.33
61113;BME280;47184;57.998;56.184;2023-02-04T02:13:53;100824.16;;;-6.00;58.49
61113;BME280;47184;57.998;56.184;2023-02-04T02:16:40;100836.97;;;-5.98;58.80
61113;BME280;47184;57.998;56.184;2023-02-04T02:19:09;100826.81;;;-6.03;58.72
61113;BME280;47184;57.998;56.184;2023-02-04T02:22:01;100822.00;;;-6.18;59.13
61113;BME280;47184;57.998;56.184;2023-02-04T02:24:30;100843.34;;;-6.14;59.14
61113;BME280;47184;57.998;56.184;2023-02-04T02:27:03;100789.41;;;-6.53;59.04
61113;BME280;47184;57.998;56.184;2023-02-04T02:29:30;100824.84;;;-6.30;59.21
61113;BME280;47184;57.998;56.184;2023-02-04T02:31:57;100843.41;;;-6.17;59.15
61113;BME280;47184;57.998;56.184;2023-02-04T02:34:26;100822.38;;;-6.35;59.00
61113;BME280;47184;57.998;56.184;2023-02-04T02:36:53;100823.22;;;-6.33;59.37
61113;BME280;47184;57.998;56.184;2023-02-04T02:39:21;100829.28;;;-6.37;59.49
61113;BME280;47184;57.998;56.184;2023-02-04T02:41:47;100841.03;;;-6.27;59.83
61113;BME280;47184;57.998;56.184;2023-02-04T02:44:15;100814.91;;;-6.45;59.21
61113;BME280;47184;57.998;56.184;2023-02-04T02:46:42;100848.81;;;-6.28;59.42
61113;BME280;47184;57.998;56.184;2023-02-04T02:49:16;100853.00;;;-6.24;59.30
61113;BME280;47184;57.998;56.184;2023-02-04T02:51:44;100860.03;;;-6.32;59.81
61113;BME280;47184;57.998;56.184;2023-02-04T02:54:23;100857.56;;;-6.37;59.84
61113;BME280;47184;57.998;56.184;2023-02-04T02:56:53;100861.81;;;-6.37;59.72
61113;BME280;47184;57.998;56.184;2023-02-04T02:59:22;100865.31;;;-6.40;60.20
61113;BME280;47184;57.998;56.184;2023-02-04T03:01:55;100853.53;;;-6.49;59.91
61113;BME280;47184;57.998;56.184;2023-02-04T03:04:25;100822.31;;;-6.72;59.77
61113;BME280;47184;57.998;56.184;2023-02-04T03:06:53;100846.03;;;-6.59;60.28
61113;BME280;47184;57.998;56.184;2023-02-04T03:09:22;100861.25;;;-6.50;60.04
61113;BME280;47184;57.998;56.184;2023-02-04T03:11:50;100842.66;;;-6.63;60.20
61113;BME280;47184;57.998;56.184;2023-02-04T03:14:17;100864.78;;;-6.56;60.47
61113;BME280;47184;57.998;56.184;2023-02-04T03:16:44;100855.56;;;-6.66;60.13
61113;BME280;47184;57.998;56.184;2023-02-04T03:19:11;100862.34;;;-6.62;60.29
61113;BME280;47184;57.998;56.184;2023-02-04T03:21:38;100851.38;;;-6.70;59.94
61113;BME280;47184;57.998;56.184;2023-02-04T03:24:05;100821.00;;;-6.91;60.21
61113;BME280;47184;57.998;56.184;2023-02-04T03:26:32;100873.53;;;-6.64;60.63
61113;BME280;47184;57.998;56.184;2023-02-04T03:28:58;100869.28;;;-6.67;60.60
61113;BME280;47184;57.998;56.184;2023-02-04T03:31:24;100843.06;;;-6.83;60.24
61113;BME280;47184;57.998;56.184;2023-02-04T03:33:51;100850.69;;;-6.78;60.32
61113;BME280;47184;57.998;56.184;2023-02-04T03:36:16;100850.72;;;-6.80;60.54
61113;BME280;47184;57.998;56.184;2023-02-04T03:38:43;100858.38;;;-6.78;59.77
61113;BME280;47184;57.998;56.184;2023-02-04T03:41:09;100850.72;;;-6.80;60.33
61113;BME280;47184;57.998;56.184;2023-02-04T03:43:36;100857.53;;;-6.77;60.25
61113;BME280;47184;57.998;56.184;2023-02-04T03:46:02;100876.22;;;-6.70;60.52
61113;BME280;47184;57.998;56.184;2023-02-04T03:48:29;100853.41;;;-6.86;60.56
61113;BME280;47184;57.998;56.184;2023-02-04T03:50:55;100871.31;;;-6.83;60.80
61113;BME280;47184;57.998;56.184;2023-02-04T03:53:23;100879.06;;;-6.84;60.48
61113;BME280;47184;57.998;56.184;2023-02-04T03:55:49;100878.16;;;-6.82;60.62
61113;BME280;47184;57.998;56.184;2023-02-04T03:58:15;100870.56;;;-6.88;60.52
61113;BME280;47184;57.998;56.184;2023-02-04T04:00:41;100874.16;;;-6.96;60.72
61113;BME280;47184;57.998;56.184;2023-02-04T04:03:07;100864.84;;;-7.02;60.62
61113;BME280;47184;57.998;56.184;2023-02-04T04:05:34;100886.94;;;-6.93;60.58
61113;BME280;47184;57.998;56.184;2023-02-04T04:08:00;100851.28;;;-7.09;60.88
61113;BME280;47184;57.998;56.184;2023-02-04T04:10:26;100880.03;;;-6.91;61.08
61113;BME280;47184;57.998;56.184;2023-02-04T04:12:54;100871.69;;;-7.03;60.77
61113;BME280;47184;57.998;56.184;2023-02-04T04:15:21;100879.47;;;-7.06;60.79
61113;BME280;47184;57.998;56.184;2023-02-04T04:17:47;100882.81;;;-7.04;61.05
61113;BME280;47184;57.998;56.184;2023-02-04T04:20:14;100892.22;;;-7.01;61.18
61113;BME280;47184;57.998;56.184;2023-02-04T04:22:43;100876.16;;;-7.12;61.16
61113;BME280;47184;57.998;56.184;2023-02-04T04:25:10;100897.22;;;-6.93;61.11
61113;BME280;47184;57.998;56.184;2023-02-04T04:27:36;100860.00;;;-7.19;61.05
61113;BME280;47184;57.998;56.184;2023-02-04T04:30:03;100900.63;;;-6.94;61.48
61113;BME280;47184;57.998;56.184;2023-02-04T04:32:29;100866.91;;;-7.21;61.58
61113;BME280;47184;57.998;56.184;2023-02-04T04:34:57;100875.19;;;-7.07;61.16
61113;BME280;47184;57.998;56.184;2023-02-04T04:37:23;100906.50;;;-6.88;61.12
61113;BME280;47184;57.998;56.184;2023-02-04T04:39:49;100878.59;;;-7.05;61.07
61113;BME280;47184;57.998;56.184;2023-02-04T04:42:15;100912.31;;;-6.78;61.15
61113;BME280;47184;57.998;56.184;2023-02-04T04:44:41;100909.69;;;-6.75;60.83
61113;BME280;47184;57.998;56.184;2023-02-04T04:47:07;100893.63;;;-6.85;60.67
61113;BME280;47184;57.998;56.184;2023-02-04T04:49:36;100911.53;;;-6.83;61.19
61113;BME280;47184;57.998;56.184;2023-02-04T04:52:03;100915.59;;;-6.71;60.86
61113;BME280;47184;57.998;56.184;2023-02-04T04:54:29;100928.25;;;-6.61;61.16
61113;BME280;47184;57.998;56.184;2023-02-04T04:56:55;100934.06;;;-6.51;60.87
61113;BME280;47184;57.998;56.184;2023-02-04T04:59:32;100924.66;;;-6.54;60.89
61113;BME280;47184;57.998;56.184;2023-02-04T05:09:06;100937.91;;;-6.30;60.70
61113;BME280;47184;57.998;56.184;2023-02-04T05:11:34;100925.75;;;-6.20;60.60
61113;BME280;47184;57.998;56.184;2023-02-04T05:14:00;100929.84;;;-6.12;60.54
61113;BME280;47184;57.998;56.184;2023-02-04T05:16:26;100924.59;;;-6.09;60.46
61113;BME280;47184;57.998;56.184;2023-02-04T05:18:52;100933.72;;;-5.94;60.46
61113;BME280;47184;57.998;56.184;2023-02-04T05:21:18;100936.22;;;-5.91;60.02
61113;BME280;47184;57.998;56.184;2023-02-04T05:23:44;100933.56;;;-5.88;60.50
61113;BME280;47184;57.998;56.184;2023-02-04T05:26:10;100937.13;;;-5.93;60.28
61113;BME280;47184;57.998;56.184;2023-02-04T05:28:36;100937.06;;;-5.90;59.77
61113;BME280;47184;57.998;56.184;2023-02-04T05:31:02;100941.28;;;-5.88;60.06
61113;BME280;47184;57.998;56.184;2023-02-04T05:33:28;100940.75;;;-5.63;60.14
61113;BME280;47184;57.998;56.184;2023-02-04T05:35:54;100918.16;;;-5.52;59.57
61113;BME280;47184;57.998;56.184;2023-02-04T05:38:20;100936.53;;;-5.30;59.45
61113;BME280;47184;57.998;56.184;2023-02-04T05:40:46;100892.31;;;-5.48;59.13
61113;BME280;47184;57.998;56.184;2023-02-04T05:43:16;100938.44;;;-5.04;59.71
61113;BME280;47184;57.998;56.184;2023-02-04T05:45:46;100904.88;;;-5.01;59.10
61113;BME280;47184;57.998;56.184;2023-02-04T05:48:21;100934.84;;;-4.66;58.76
61113;BME280;47184;57.998;56.184;2023-02-04T05:51:07;100917.25;;;-4.50;58.38
61113;BME280;47184;57.998;56.184;2023-02-04T05:53:33;100936.53;;;-4.32;58.22
61113;BME280;47184;57.998;56.184;2023-02-04T05:56:02;100937.38;;;-4.33;58.12
61113;BME280;47184;57.998;56.184;2023-02-04T05:58:28;100951.09;;;-4.31;57.69
61113;BME280;47184;57.998;56.184;2023-02-04T06:01:02;100936.31;;;-4.26;58.15
61113;BME280;47184;57.998;56.184;2023-02-04T06:03:29;100945.75;;;-4.25;57.88
61113;BME280;47184;57.998;56.184;2023-02-04T06:05:55;100947.41;;;-4.22;57.80
61113;BME280;47184;57.998;56.184;2023-02-04T06:08:22;100941.94;;;-4.12;57.55
61113;BME280;47184;57.998;56.184;2023-02-04T06:10:48;100918.47;;;-4.03;57.51
61113;BME280;47184;57.998;56.184;2023-02-04T06:13:14;100931.69;;;-3.57;57.38
61113;BME280;47184;57.998;56.184;2023-02-04T06:15:40;100952.97;;;-3.22;57.15
61113;BME280;47184;57.998;56.184;2023-02-04T06:18:06;100942.84;;;-3.02;56.87
61113;BME280;47184;57.998;56.184;2023-02-04T06:20:32;100941.03;;;-2.75;57.02
61113;BME280;47184;57.998;56.184;2023-02-04T06:22:58;100947.16;;;-2.53;56.60
61113;BME280;47184;57.998;56.184;2023-02-04T06:25:24;100951.91;;;-2.42;56.06
61113;BME280;47184;57.998;56.184;2023-02-04T06:27:50;100945.13;;;-2.44;55.95
61113;BME280;47184;57.998;56.184;2023-02-04T06:30:17;100939.53;;;-2.32;56.14
61113;BME280;47184;57.998;56.184;2023-02-04T06:32:43;100933.78;;;-2.40;56.47
61113;BME280;47184;57.998;56.184;2023-02-04T06:35:09;100917.81;;;-2.52;56.12
61113;BME280;47184;57.998;56.184;2023-02-04T06:37:38;100955.03;;;-2.32;56.19
61113;BME280;47184;57.998;56.184;2023-02-04T06:40:05;100944.25;;;-2.20;56.36
61113;BME280;47184;57.998;56.184;2023-02-04T06:42:31;100950.41;;;-2.01;55.78
61113;BME280;47184;57.998;56.184;2023-02-04T06:44:57;100946.69;;;-1.93;55.94
61113;BME280;47184;57.998;56.184;2023-02-04T06:47:23;100951.13;;;-1.97;55.27
61113;BME280;47184;57.998;56.184;2023-02-04T06:49:49;100932.94;;;-2.17;55.46
61113;BME280;47184;57.998;56.184;2023-02-04T06:52:15;100950.88;;;-2.13;55.22
61113;BME280;47184;57.998;56.184;2023-02-04T06:54:41;100957.75;;;-2.12;55.21
61113;BME280;47184;57.998;56.184;2023-02-04T06:57:07;100942.78;;;-2.27;54.67
61113;BME280;47184;57.998;56.184;2023-02-04T06:59:35;100952.38;;;-2.31;55.56
61113;BME280;47184;57.998;56.184;2023-02-04T07:02:01;100921.03;;;-2.70;54.75
61113;BME280;47184;57.998;56.184;2023-02-04T07:04:28;100969.50;;;-2.52;55.09
61113;BME280;47184;57.998;56.184;2023-02-04T07:06:54;100969.34;;;-2.47;55.07
61113;BME280;47184;57.998;56.184;2023-02-04T07:09:20;100971.84;;;-2.44;54.93
61113;BME280;47184;57.998;56.184;2023-02-04T07:11:46;100957.53;;;-2.54;54.75
61113;BME280;47184;57.998;56.184;2023-02-04T07:14:12;100968.63;;;-2.51;54.50
61113;BME280;47184;57.998;56.184;2023-02-04T07:16:38;100962.34;;;-2.43;55.13
61113;BME280;47184;57.998;56.184;2023-02-04T07:19:04;100972.47;;;-2.14;54.66
61113;BME280;47184;57.998;56.184;2023-02-04T07:21:31;100955.16;;;-2.12;54.58
61113;BME280;47184;57.998;56.184;2023-02-04T07:23:57;100973.56;;;-1.96;54.19
61113;BME280;47184;57.998;56.184;2023-02-04T07:26:23;100976.53;;;-1.83;53.77
61113;BME280;47184;57.998;56.184;2023-02-04T07:28:49;100971.53;;;-1.66;54.09
61113;BME280;47184;57.998;56.184;2023-02-04T07:31:15;100979.63;;;-1.30;53.61
61113;BME280;47184;57.998;56.184;2023-02-04T07:33:41;100984.22;;;-1.16;53.79
61113;BME280;47184;57.998;56.184;2023-02-04T07:36:07;100984.38;;;-0.98;53.81
61113;BME280;47184;57.998;56.184;2023-02-04T07:38:33;100982.81;;;-1.03;53.17
61113;BME280;47184;57.998;56.184;2023-02-04T07:41:01;100948.22;;;-1.44;53.33
61113;BME280;47184;57.998;56.184;2023-02-04T07:43:27;100992.28;;;-1.22;53.03
61113;BME280;47184;57.998;56.184;2023-02-04T07:45:53;100988.50;;;-1.15;53.02
61113;BME280;47184;57.998;56.184;2023-02-04T07:48:19;100993.72;;;-0.94;52.98
61113;BME280;47184;57.998;56.184;2023-02-04T07:50:46;100988.91;;;-0.82;53.25
61113;BME280;47184;57.998;56.184;2023-02-04T07:53:12;100982.53;;;-0.54;53.09
61113;BME280;47184;57.998;56.184;2023-02-04T07:55:38;100988.16;;;-0.24;53.49
61113;BME280;47184;57.998;56.184;2023-02-04T07:58:04;100974.97;;;-0.19;52.65
61113;BME280;47184;57.998;56.184;2023-02-04T08:00:30;100982.34;;;-0.10;53.18
61113;BME280;47184;57.998;56.184;2023-02-04T08:02:56;100990.16;;;0.09;52.66
61113;BME280;47184;57.998;56.184;2023-02-04T08:05:23;100970.44;;;0.05;53.00
61113;BME280;47184;57.998;56.184;2023-02-04T08:07:51;100988.94;;;0.35;52.63
61113;BME280;47184;57.998;56.184;2023-02-04T08:10:17;100979.88;;;0.43;52.63
61113;BME280;47184;57.998;56.184;2023-02-04T08:12:43;100989.22;;;0.47;51.82
61113;BME280;47184;57.998;56.184;2023-02-04T08:15:09;100988.25;;;0.50;52.06
61113;BME280;47184;57.998;56.184;2023-02-04T08:17:35;100962.63;;;0.42;52.01
61113;BME280;47184;57.998;56.184;2023-02-04T08:20:01;100996.88;;;0.87;52.11
61113;BME280;47184;57.998;56.184;2023-02-04T08:22:28;100972.66;;;1.21;51.43
61113;BME280;47184;57.998;56.184;2023-02-04T08:24:54;100983.09;;;1.71;51.00
61113;BME280;47184;57.998;56.184;2023-02-04T08:27:20;100988.75;;;1.95;50.78
61113;BME280;47184;57.998;56.184;2023-02-04T08:29:46;100985.41;;;1.93;49.98
61113;BME280;47184;57.998;56.184;2023-02-04T08:32:13;100969.41;;;1.68;49.86
61113;BME280;47184;57.998;56.184;2023-02-04T08:34:39;100986.59;;;1.70;50.45
61113;BME280;47184;57.998;56.184;2023-02-04T08:37:05;100974.78;;;1.81;50.07
61113;BME280;47184;57.998;56.184;2023-02-04T08:39:31;100979.53;;;2.06;49.80
61113;BME280;47184;57.998;56.184;2023-02-04T08:41:58;100977.53;;;2.11;50.09
61113;BME280;47184;57.998;56.184;2023-02-04T08:44:24;100992.34;;;2.26;49.42
61113;BME280;47184;57.998;56.184;2023-02-04T08:46:50;100993.75;;;2.32;48.84
61113;BME280;47184;57.998;56.184;2023-02-04T08:49:16;100983.84;;;2.22;48.82
61113;BME280;47184;57.998;56.184;2023-02-04T08:51:42;100983.00;;;2.22;48.64
61113;BME280;47184;57.998;56.184;2023-02-04T08:54:08;100990.47;;;2.12;48.78
61113;BME280;47184;57.998;56.184;2023-02-04T08:56:34;100993.03;;;1.81;48.76
61113;BME280;47184;57.998;56.184;2023-02-04T08:59:00;101005.44;;;1.58;49.20
61113;BME280;47184;57.998;56.184;2023-02-04T09:01:26;100963.78;;;1.25;49.48
61113;BME280;47184;57.998;56.184;2023-02-04T09:03:52;100993.44;;;1.38;49.27
61113;BME280;47184;57.998;56.184;2023-02-04T09:06:18;101003.19;;;1.52;49.44
61113;BME280;47184;57.998;56.184;2023-02-04T09:08:44;100963.38;;;1.33;48.68
61113;BME280;47184;57.998;56.184;2023-02-04T09:11:12;100993.13;;;1.62;48.38
61113;BME280;47184;57.998;56.184;2023-02-04T09:13:39;100973.63;;;1.53;48.16
61113;BME280;47184;57.998;56.184;2023-02-04T09:16:05;100962.31;;;1.37;48.02
61113;BME280;47184;57.998;56.184;2023-02-04T09:18:31;100995.06;;;1.41;48.09
61113;BME280;47184;57.998;56.184;2023-02-04T09:21:00;100975.47;;;1.34;48.29
61113;BME280;47184;57.998;56.184;2023-02-04T09:23:26;100989.72;;;1.44;47.69
61113;BME280;47184;57.998;56.184;2023-02-04T09:25:52;100988.72;;;1.29;47.95
61113;BME280;47184;57.998;56.184;2023-02-04T09:28:18;100992.94;;;1.32;48.19
61113;BME280;47184;57.998;56.184;2023-02-04T09:30:45;100983.50;;;1.64;48.00
61113;BME280;47184;57.998;56.184;2023-02-04T09:33:13;100964.03;;;1.87;47.69
61113;BME280;47184;57.998;56.184;2023-02-04T09:35:39;100982.56;;;2.14;47.50
61113;BME280;47184;57.998;56.184;2023-02-04T09:38:05;100994.66;;;2.15;46.97
61113;BME280;47184;57.998;56.184;2023-02-04T09:40:37;100990.94;;;2.03;47.03
61113;BME280;47184;57.998;56.184;2023-02-04T09:43:05;100985.41;;;1.93;47.36
61113;BME280;47184;57.998;56.184;2023-02-04T09:45:34;100990.06;;;2.04;47.32
61113;BME280;47184;57.998;56.184;2023-02-04T09:48:03;100981.31;;;2.05;47.36
61113;BME280;47184;57.998;56.184;2023-02-04T09:50:31;100990.38;;;1.98;47.22
61113;BME280;47184;57.998;56.184;2023-02-04T09:53:00;100994.22;;;1.91;47.37
61113;BME280;47184;57.998;56.184;2023-02-04T09:55:31;100982.06;;;1.74;46.94
61113;BME280;47184;57.998;56.184;2023-02-04T09:57:57;100996.81;;;1.58;47.23
61113;BME280;47184;57.998;56.184;2023-02-04T10:00:27;100985.66;;;1.21;47.31
61113;BME280;47184;57.998;56.184;2023-02-04T10:03:01;101000.19;;;1.08;47.86
61113;BME280;47184;57.998;56.184;2023-02-04T10:05:31;101005.31;;;1.09;48.11
61113;BME280;47184;57.998;56.184;2023-02-04T10:07:57;101003.94;;;1.02;47.71
61113;BME280;47184;57.998;56.184;2023-02-04T10:10:25;101003.91;;;0.85;47.67
61113;BME280;47184;57.998;56.184;2023-02-04T10:13:00;101009.22;;;0.64;48.19
61113;BME280;47184;57.998;56.184;2023-02-04T10:15:27;100998.94;;;0.80;47.91
61113;BME280;47184;57.998;56.184;2023-02-04T10:18:01;100991.59;;;0.71;48.06
61113;BME280;47184;57.998;56.184;2023-02-04T10:20:28;101003.69;;;0.89;47.82
61113;BME280;47184;57.998;56.184;2023-02-04T10:22:55;100999.66;;;1.01;47.62
61113;BME280;47184;57.998;56.184;2023-02-04T10:25:25;101005.31;;;0.92;47.50
61113;BME280;47184;57.998;56.184;2023-02-04T10:27:55;100998.22;;;0.77;47.38
61113;BME280;47184;57.998;56.184;2023-02-04T10:30:25;100994.41;;;0.47;47.39
61113;BME280;47184;57.998;56.184;2023-02-04T10:32:52;100991.41;;;0.19;47.58
61113;BME280;47184;57.998;56.184;2023-02-04T10:35:20;100991.22;;;0.05;47.65
61113;BME280;47184;57.998;56.184;2023-02-04T10:37:47;100995.94;;;-0.05;47.74
61113;BME280;47184;57.998;56.184;2023-02-04T10:40:30;100988.16;;;-0.24;48.08
61113;BME280;47184;57.998;56.184;2023-02-04T10:42:57;100990.56;;;-0.40;47.82
61113;BME280;47184;57.998;56.184;2023-02-04T10:45:28;100976.81;;;-0.62;48.13
61113;BME280;47184;57.998;56.184;2023-02-04T10:47:55;100966.78;;;-0.70;48.07
61113;BME280;47184;57.998;56.184;2023-02-04T10:50:26;100989.06;;;-0.45;48.38
61113;BME280;47184;57.998;56.184;2023-02-04T10:52:58;100994.47;;;-0.50;47.86
61113;BME280;47184;57.998;56.184;2023-02-04T10:55:45;101003.28;;;-0.34;47.77
61113;BME280;47184;57.998;56.184;2023-02-04T10:58:16;101002.03;;;-0.45;47.64
61113;BME280;47184;57.998;56.184;2023-02-04T11:00:43;100995.91;;;-0.63;47.64
61113;BME280;47184;57.998;56.184;2023-02-04T11:05:46;100998.03;;;-0.93;47.96
61113;BME280;47184;57.998;56.184;2023-02-04T11:08:33;100998.84;;;-1.13;48.46
61113;BME280;47184;57.998;56.184;2023-02-04T11:11:04;100993.28;;;-1.04;47.99
61113;BME280;47184;57.998;56.184;2023-02-04T11:13:44;100980.88;;;-1.18;48.41
61113;BME280;47184;57.998;56.184;2023-02-04T11:19:12;101011.94;;;-0.96;47.89
61113;BME280;47184;57.998;56.184;2023-02-04T11:24:21;101008.00;;;-1.27;48.33
61113;BME280;47184;57.998;56.184;2023-02-04T11:27:03;101011.78;;;-1.35;48.13
61113;BME280;47184;57.998;56.184;2023-02-04T11:29:32;101010.22;;;-1.39;48.55
61113;BME280;47184;57.998;56.184;2023-02-04T11:32:34;100981.41;;;-1.54;48.53
61113;BME280;47184;57.998;56.184;2023-02-04T11:35:21;101007.50;;;-1.36;48.37
61113;BME280;47184;57.998;56.184;2023-02-04T11:37:47;101011.47;;;-1.28;48.49
61113;BME280;47184;57.998;56.184;2023-02-04T11:40:31;101000.88;;;-1.43;48.27
61113;BME280;47184;57.998;56.184;2023-02-04T11:43:02;100978.56;;;-1.47;48.43
61113;BME280;47184;57.998;56.184;2023-02-04T11:45:35;100967.53;;;-1.51;48.10
61113;BME280;47184;57.998;56.184;2023-02-04T11:48:13;101005.72;;;-1.34;48.27
61113;BME280;47184;57.998;56.184;2023-02-04T11:50:40;101007.47;;;-1.35;48.19
61113;BME280;47184;57.998;56.184;2023-02-04T11:53:10;101015.47;;;-1.41;48.49
61113;BME280;47184;57.998;56.184;2023-02-04T11:55:43;101018.84;;;-1.39;48.53
61113;BME280;47184;57.998;56.184;2023-02-04T11:58:15;101020.47;;;-1.36;48.79
61113;BME280;47184;57.998;56.184;2023-02-04T12:00:41;101019.72;;;-1.40;48.51
61113;BME280;47184;57.998;56.184;2023-02-04T12:05:46;101023.97;;;-1.37;48.27
61113;BME280;47184;57.998;56.184;2023-02-04T12:08:25;101014.84;;;-1.47;48.80
61113;BME280;47184;57.998;56.184;2023-02-04T12:13:27;101015.63;;;-1.45;48.54
61113;BME280;47184;57.998;56.184;2023-02-04T12:16:08;101004.47;;;-1.69;48.84
61113;BME280;47184;57.998;56.184;2023-02-04T12:18:34;101020.63;;;-1.63;48.73
61113;BME280;47184;57.998;56.184;2023-02-04T12:21:01;101005.94;;;-1.86;48.76
61113;BME280;47184;57.998;56.184;2023-02-04T12:23:28;101012.06;;;-1.88;49.11
61113;BME280;47184;57.998;56.184;2023-02-04T12:25:55;101015.25;;;-2.04;49.06
61113;BME280;47184;57.998;56.184;2023-02-04T12:28:28;101010.78;;;-2.23;49.60
61113;BME280;47184;57.998;56.184;2023-02-04T12:30:54;101010.28;;;-2.35;49.24
61113;BME280;47184;57.998;56.184;2023-02-04T12:33:21;101013.47;;;-2.52;49.46
61113;BME280;47184;57.998;56.184;2023-02-04T12:35:50;101019.66;;;-2.56;49.28
61113;BME280;47184;57.998;56.184;2023-02-04T12:38:16;101023.28;;;-2.61;49.23
61113;BME280;47184;57.998;56.184;2023-02-04T12:40:45;101023.66;;;-2.72;49.49
61113;BME280;47184;57.998;56.184;2023-02-04T12:43:12;101022.25;;;-2.82;49.95
61113;BME280;47184;57.998;56.184;2023-02-04T12:45:38;101014.88;;;-2.93;50.00
61113;BME280;47184;57.998;56.184;2023-02-04T12:48:12;101037.28;;;-2.93;49.77
61113;BME280;47184;57.998;56.184;2023-02-04T12:50:38;101033.94;;;-2.97;49.64
61113;BME280;47184;57.998;56.184;2023-02-04T12:53:04;101014.66;;;-3.13;49.96
61113;BME280;47184;57.998;56.184;2023-02-04T12:55:31;101032.78;;;-3.15;50.16
61113;BME280;47184;57.998;56.184;2023-02-04T12:58:00;101035.72;;;-3.26;50.16
61113;BME280;47184;57.998;56.184;2023-02-04T13:00:26;101045.28;;;-3.29;50.06
61113;BME280;47184;57.998;56.184;2023-02-04T13:02:52;101041.25;;;-3.38;50.16
61113;BME280;47184;57.998;56.184;2023-02-04T13:05:23;101041.25;;;-3.38;50.30
61113;BME280;47184;57.998;56.184;2023-02-04T13:07:49;101021.88;;;-3.53;50.37